Time;durP1;ratioP1;P1;durP2;ratioP2;P2;SDS_P1;SDS_P2;PMS_P1;PMS_P2;Temp;Humidity;BMP_temperature;BMP_pressure;BME280_temperature;BME280_humidity;BME280_pressure;Samples;Min_cycle;Max_cycle;Signal;HPM_P1;HPM_P2
2022/06/05 04:30:39;;;;;;;11.90;9.43;;;17.30;99.90;;;;;;5831519;23;20506;-73
2022/06/05 04:33:06;;;;;;;10.23;9.23;;;17.20;99.90;;;;;;4935829;29;20441;-73
2022/06/05 04:35:32;;;;;;;11.30;9.40;;;17.20;99.90;;;;;;4935921;29;20486;-73
2022/06/05 04:37:57;;;;;;;19.97;10.27;;;17.30;99.90;;;;;;4935964;29;20430;-73
2022/06/05 04:40:23;;;;;;;10.20;9.27;;;17.40;99.90;;;;;;4936084;29;20466;-74
2022/06/05 04:42:49;;;;;;;10.33;9.00;;;17.40;99.90;;;;;;4936133;29;20183;-73
2022/06/05 04:45:14;;;;;;;10.67;9.57;;;17.40;99.90;;;;;;4934661;29;20242;-74
2022/06/05 04:47:40;;;;;;;10.47;9.40;;;17.40;99.90;;;;;;4935938;29;20190;-73
2022/06/05 04:50:07;;;;;;;13.53;9.10;;;17.40;99.90;;;;;;4935670;29;20171;-73
2022/06/05 04:52:32;;;;;;;10.33;9.30;;;17.40;99.90;;;;;;4935727;29;20443;-73
2022/06/05 04:54:58;;;;;;;10.07;9.07;;;17.40;99.90;;;;;;4935726;29;20423;-74
2022/06/05 04:57:24;;;;;;;9.43;8.63;;;17.40;99.90;;;;;;4935075;29;20661;-74
2022/06/05 04:59:50;;;;;;;9.70;8.90;;;17.40;99.90;;;;;;4934844;29;20185;-74
2022/06/05 05:02:17;;;;;;;11.27;9.93;;;17.50;99.90;;;;;;4934741;29;20242;-74
2022/06/05 05:04:43;;;;;;;9.30;8.60;;;17.50;99.90;;;;;;4934838;29;20775;-74
2022/06/05 05:07:09;;;;;;;12.97;9.10;;;17.50;99.90;;;;;;4934964;29;20470;-74
2022/06/05 05:09:34;;;;;;;10.17;8.93;;;17.50;99.90;;;;;;4934581;29;20175;-74
2022/06/05 05:12:00;;;;;;;15.30;9.03;;;17.40;99.90;;;;;;4934685;29;20230;-74
2022/06/05 05:14:25;;;;;;;11.63;8.83;;;17.50;99.90;;;;;;4934931;29;20175;-73
2022/06/05 05:16:51;;;;;;;9.60;8.73;;;17.50;99.90;;;;;;4933596;29;20191;-74
2022/06/05 05:19:17;;;;;;;10.53;9.43;;;17.50;99.90;;;;;;4935195;29;20182;-73
2022/06/05 05:21:42;;;;;;;8.37;7.57;;;17.40;99.90;;;;;;4938466;29;20214;-74
2022/06/05 05:24:08;;;;;;;11.60;9.20;;;17.50;99.90;;;;;;4938562;29;20214;-74
2022/06/05 05:26:35;;;;;;;11.20;9.50;;;17.50;99.90;;;;;;4938476;29;20179;-73
2022/06/05 05:29:03;;;;;;;8.93;8.03;;;17.60;99.90;;;;;;4937171;29;20631;-74
2022/06/05 05:31:35;;;;;;;9.50;8.60;;;17.60;99.90;;;;;;4938225;29;20557;-74
2022/06/05 05:34:01;;;;;;;10.73;8.30;;;17.60;99.90;;;;;;4938381;29;20761;-74
2022/06/05 05:36:27;;;;;;;9.77;8.87;;;17.60;99.90;;;;;;4938304;29;20510;-73
2022/06/05 05:44:23;;;;;;;9.70;8.83;;;17.60;99.90;;;;;;4938978;29;20437;-74
2022/06/05 05:46:49;;;;;;;11.43;9.40;;;17.60;99.90;;;;;;4938659;29;20419;-73
2022/06/05 05:49:15;;;;;;;9.07;8.27;;;17.60;99.90;;;;;;4938725;29;20174;-74
2022/06/05 05:51:41;;;;;;;9.47;8.57;;;17.60;99.90;;;;;;4938719;29;20765;-73
2022/06/05 05:54:08;;;;;;;11.20;8.30;;;17.70;99.90;;;;;;4952830;29;20189;-73
2022/06/05 05:56:34;;;;;;;11.30;8.63;;;17.70;99.90;;;;;;4957902;28;20430;-74
2022/06/05 05:59:00;;;;;;;9.37;8.47;;;17.70;99.90;;;;;;4957663;28;20437;-74
2022/06/05 06:01:26;;;;;;;10.00;8.83;;;17.70;99.90;;;;;;4957776;29;20824;-73
2022/06/05 06:03:52;;;;;;;9.40;8.50;;;17.70;99.90;;;;;;4957486;28;20193;-73
2022/06/05 06:06:22;;;;;;;10.70;9.60;;;17.70;99.90;;;;;;4957759;29;20442;-74
2022/06/05 06:08:48;;;;;;;9.67;8.67;;;17.70;99.90;;;;;;4957751;28;20182;-74
2022/06/05 06:11:13;;;;;;;10.50;8.00;;;17.80;99.90;;;;;;4957367;29;20448;-76
2022/06/05 06:13:39;;;;;;;10.13;9.20;;;17.80;99.90;;;;;;4956165;29;20229;-75
2022/06/05 06:16:05;;;;;;;8.30;7.60;;;17.90;99.90;;;;;;4956500;29;20186;-74
2022/06/05 06:18:30;;;;;;;9.50;8.60;;;17.90;99.90;;;;;;4956687;28;20182;-76
2022/06/05 06:20:56;;;;;;;9.33;8.53;;;17.90;99.90;;;;;;4956546;29;20687;-76
2022/06/05 06:23:21;;;;;;;9.03;8.13;;;18.00;99.90;;;;;;4956429;29;20680;-75
2022/06/05 06:25:47;;;;;;;9.10;8.10;;;18.10;99.90;;;;;;4956514;29;20187;-77
2022/06/05 06:28:12;;;;;;;8.90;8.20;;;18.10;99.90;;;;;;4956433;29;20178;-78
2022/06/05 06:30:40;;;;;;;9.23;8.30;;;18.10;99.90;;;;;;4956006;28;20233;-76
2022/06/05 06:33:05;;;;;;;10.33;9.40;;;18.10;99.90;;;;;;4955892;28;20630;-78
2022/06/05 06:35:35;;;;;;;9.10;8.20;;;18.10;99.90;;;;;;4956308;29;20438;-77
2022/06/05 06:38:00;;;;;;;11.20;8.33;;;18.20;99.90;;;;;;4956010;28;20261;-74
2022/06/05 06:40:26;;;;;;;9.70;8.70;;;18.20;99.90;;;;;;4955790;28;20565;-75
2022/06/05 06:42:57;;;;;;;8.00;7.30;;;18.30;99.90;;;;;;4955742;29;20189;-77
2022/06/05 06:45:23;;;;;;;8.77;7.87;;;18.30;99.90;;;;;;4956173;28;20555;-72
2022/06/05 06:47:49;;;;;;;9.57;8.77;;;18.30;99.90;;;;;;4956046;28;20438;-75
2022/06/05 06:50:15;;;;;;;8.60;7.80;;;18.40;99.90;;;;;;4956125;29;20429;-75
2022/06/05 06:52:41;;;;;;;9.20;7.70;;;18.40;99.90;;;;;;4956135;28;20233;-80
2022/06/05 06:55:10;;;;;;;10.23;8.00;;;18.40;99.90;;;;;;4955951;28;20780;-80
2022/06/05 06:57:36;;;;;;;8.93;8.23;;;18.40;99.90;;;;;;4955652;28;20438;-78
2022/06/05 07:00:04;;;;;;;11.27;8.93;;;18.40;99.90;;;;;;4955663;29;20935;-78
2022/06/05 07:02:29;;;;;;;9.73;8.80;;;18.40;99.90;;;;;;4955670;28;20560;-75
2022/06/05 07:04:55;;;;;;;10.23;7.93;;;18.50;99.90;;;;;;4955554;29;20422;-74
2022/06/05 07:07:20;;;;;;;10.07;9.00;;;18.50;99.90;;;;;;4955506;29;20213;-76
2022/06/05 07:09:46;;;;;;;9.70;8.73;;;18.50;99.90;;;;;;4955483;29;20225;-74
2022/06/05 07:12:11;;;;;;;8.77;8.07;;;18.50;99.90;;;;;;4955497;29;20314;-73
2022/06/05 07:14:37;;;;;;;10.00;9.00;;;18.50;99.90;;;;;;4955439;29;20181;-78
2022/06/05 07:17:04;;;;;;;9.50;8.70;;;18.50;99.90;;;;;;4955307;29;20185;-77
2022/06/05 07:19:29;;;;;;;9.23;8.33;;;18.60;99.90;;;;;;4955499;28;20187;-76
2022/06/05 07:21:55;;;;;;;9.93;8.90;;;18.60;99.90;;;;;;4955364;29;20488;-82
2022/06/05 07:24:21;;;;;;;10.80;9.80;;;18.70;99.90;;;;;;4955341;29;20186;-79
2022/06/05 07:26:46;;;;;;;9.30;8.50;;;18.80;99.90;;;;;;4955357;28;20273;-80
2022/06/05 07:29:12;;;;;;;11.30;8.33;;;18.80;99.90;;;;;;4955141;29;20178;-77
2022/06/05 07:31:37;;;;;;;12.77;9.23;;;18.90;99.90;;;;;;4955007;29;20715;-78
2022/06/05 07:34:08;;;;;;;10.07;8.97;;;18.90;99.90;;;;;;4954987;29;20182;-78
2022/06/05 07:36:33;;;;;;;12.10;10.43;;;18.90;99.90;;;;;;4955168;28;20198;-77
2022/06/05 07:39:02;;;;;;;9.80;8.80;;;18.90;99.90;;;;;;4955119;28;20458;-79
2022/06/05 07:41:31;;;;;;;14.57;9.47;;;19.00;99.90;;;;;;4955007;28;20301;-78
2022/06/05 07:43:59;;;;;;;10.17;8.50;;;19.00;99.90;;;;;;4951887;28;20437;-80
2022/06/05 07:46:25;;;;;;;10.80;9.57;;;19.20;99.90;;;;;;4955030;28;20473;-78
2022/06/05 07:48:51;;;;;;;10.23;9.23;;;19.30;99.90;;;;;;4938317;29;20477;-80
2022/06/05 07:54:27;;;;;;;9.43;8.03;;;19.40;99.90;;;;;;4938840;29;20186;-86
2022/06/05 07:56:53;;;;;;;9.57;8.50;;;19.40;99.90;;;;;;4953231;29;20437;-87
2022/06/05 07:59:19;;;;;;;10.70;9.77;;;19.40;99.90;;;;;;4954982;28;20441;-84
2022/06/05 08:01:44;;;;;;;11.00;9.90;;;19.60;99.90;;;;;;4954523;29;20481;-79
2022/06/05 08:04:10;;;;;;;9.03;8.23;;;19.50;99.90;;;;;;4954621;29;20187;-78
2022/06/05 08:06:36;;;;;;;11.30;10.20;;;19.50;99.90;;;;;;4954882;29;20179;-74
2022/06/05 08:09:04;;;;;;;9.90;8.73;;;19.60;99.90;;;;;;4953258;29;20178;-77
2022/06/05 08:11:31;;;;;;;12.20;9.40;;;19.80;99.90;;;;;;4954580;28;20457;-77
2022/06/05 08:13:57;;;;;;;10.60;9.07;;;19.80;99.90;;;;;;4954233;28;20501;-76
2022/06/05 08:16:23;;;;;;;10.03;9.10;;;19.70;99.90;;;;;;4954396;28;20693;-75
2022/06/05 08:18:51;;;;;;;8.87;8.07;;;19.70;99.90;;;;;;4954175;29;20421;-76
2022/06/05 08:21:18;;;;;;;10.47;9.33;;;19.90;99.90;;;;;;4954204;28;20221;-75
2022/06/05 08:23:44;;;;;;;9.50;8.70;;;19.90;99.90;;;;;;4954123;28;20477;-77
2022/06/05 08:26:09;;;;;;;9.60;8.77;;;20.00;99.90;;;;;;4953942;29;20473;-78
2022/06/05 08:28:36;;;;;;;9.53;8.63;;;20.20;99.90;;;;;;4954158;29;20179;-78
2022/06/05 08:31:02;;;;;;;8.57;7.80;;;20.30;99.90;;;;;;4953926;28;20233;-77
2022/06/05 08:33:28;;;;;;;11.17;9.50;;;20.50;99.90;;;;;;4954286;28;20484;-79
2022/06/05 08:35:54;;;;;;;10.90;9.83;;;20.70;99.90;;;;;;4954069;29;21011;-79
2022/06/05 08:41:32;;;;;;;8.60;7.83;;;21.00;99.90;;;;;;4954828;29;20228;-76
2022/06/05 08:44:07;;;;;;;9.07;8.23;;;21.20;99.90;;;;;;4954097;28;20466;-77
2022/06/05 08:46:56;;;;;;;12.83;8.70;;;21.40;99.90;;;;;;4952732;29;20937;-76
2022/06/05 08:49:45;;;;;;;9.87;8.77;;;21.50;99.90;;;;;;4954044;28;20461;-76
2022/06/05 08:52:49;;;;;;;9.03;8.23;;;21.60;99.90;;;;;;4954091;28;20422;-77
2022/06/05 08:55:36;;;;;;;9.67;8.70;;;21.60;99.90;;;;;;4953797;28;20422;-77
2022/06/05 08:58:30;;;;;;;9.63;8.73;;;21.80;99.90;;;;;;4954685;28;20429;-77
2022/06/05 09:01:02;;;;;;;9.53;8.73;;;21.90;99.90;;;;;;4948997;28;20476;-77
2022/06/05 09:04:18;;;;;;;9.10;8.20;;;22.00;99.90;;;;;;4954791;28;20449;-76
2022/06/05 09:07:00;;;;;;;10.80;7.40;;;22.20;99.90;;;;;;4930001;28;20434;-76
2022/06/05 09:09:32;;;;;;;8.90;8.10;;;22.20;99.90;;;;;;4954787;28;20795;-76
2022/06/05 09:12:06;;;;;;;8.27;7.47;;;22.20;99.90;;;;;;4954776;28;20445;-76
2022/06/05 09:14:54;;;;;;;8.43;7.60;;;22.30;99.90;;;;;;4953637;29;20512;-76
2022/06/05 09:17:20;;;;;;;8.97;8.20;;;22.30;99.90;;;;;;4954794;28;20436;-74
2022/06/05 09:19:49;;;;;;;9.17;8.40;;;22.40;99.90;;;;;;4954833;28;20425;-74
2022/06/05 09:22:25;;;;;;;8.50;7.80;;;22.40;99.90;;;;;;4954754;28;20494;-75
2022/06/05 09:25:09;;;;;;;7.73;7.10;;;22.40;99.90;;;;;;4954639;29;20496;-78
2022/06/05 09:28:01;;;;;;;9.57;8.77;;;22.40;99.90;;;;;;4954656;29;20429;-77
2022/06/05 09:30:46;;;;;;;8.93;8.20;;;22.60;99.90;;;;;;4954370;29;20501;-77
2022/06/05 09:33:34;;;;;;;10.53;9.60;;;22.50;99.90;;;;;;4954690;28;20789;-76
2022/06/05 09:36:04;;;;;;;10.17;9.37;;;22.50;99.90;;;;;;4954694;28;20833;-76
2022/06/05 09:38:36;;;;;;;9.90;9.00;;;22.60;99.90;;;;;;4954561;28;20433;-74
2022/06/05 09:41:20;;;;;;;9.33;8.60;;;22.60;99.90;;;;;;4954435;29;20938;-74
2022/06/05 09:44:09;;;;;;;11.53;9.40;;;22.60;99.90;;;;;;4954425;29;20434;-73
2022/06/05 09:46:41;;;;;;;14.77;9.00;;;22.50;99.90;;;;;;4954759;29;20410;-73
2022/06/05 09:49:14;;;;;;;10.50;9.43;;;22.50;99.90;;;;;;4954230;28;20448;-75
2022/06/05 09:51:42;;;;;;;9.20;8.40;;;22.60;99.90;;;;;;4954516;28;20421;-75
2022/06/05 09:54:29;;;;;;;9.17;8.47;;;22.60;99.90;;;;;;4954329;28;20430;-75
2022/06/05 10:00:04;;;;;;;8.90;7.50;;;22.70;99.90;;;;;;4954211;29;20491;-75
2022/06/05 10:02:30;;;;;;;8.90;8.10;;;22.70;99.90;;;;;;4954324;28;20477;-75
2022/06/05 10:04:56;;;;;;;8.23;7.63;;;22.70;99.90;;;;;;4954182;28;20788;-75
2022/06/05 10:07:32;;;;;;;7.07;6.57;;;22.60;99.90;;;;;;4955969;28;20434;-74
2022/06/05 10:10:07;;;;;;;7.90;7.10;;;22.70;99.90;;;;;;4957522;28;20509;-75
2022/06/05 10:12:47;;;;;;;7.63;6.97;;;22.70;99.90;;;;;;4957531;28;20437;-73
2022/06/05 10:15:26;;;;;;;8.10;7.40;;;22.60;99.90;;;;;;4957713;28;20766;-74
2022/06/05 10:18:01;;;;;;;7.20;6.23;;;22.70;99.90;;;;;;4957628;28;20429;-74
2022/06/05 10:20:45;;;;;;;7.60;7.00;;;22.70;99.90;;;;;;4957470;28;20425;-72
2022/06/05 10:23:16;;;;;;;7.63;7.03;;;22.70;99.90;;;;;;4957488;28;20442;-73
2022/06/05 10:26:00;;;;;;;7.33;6.73;;;22.60;99.90;;;;;;4957516;28;20434;-74
2022/06/05 10:28:29;;;;;;;7.00;6.40;;;22.60;99.90;;;;;;4957333;29;20430;-73
2022/06/05 10:31:00;;;;;;;7.97;7.37;;;22.40;99.90;;;;;;4956935;28;20458;-73
2022/06/05 10:33:40;;;;;;;7.30;6.80;;;22.40;99.90;;;;;;4955985;29;20442;-74
2022/06/05 10:36:16;;;;;;;8.03;7.33;;;22.20;99.90;;;;;;4957198;28;20826;-74
2022/06/05 10:38:52;;;;;;;8.07;7.47;;;22.10;99.90;;;;;;4955936;29;20929;-74
2022/06/05 10:41:29;;;;;;;9.37;8.60;;;21.90;99.90;;;;;;4957111;28;20477;-74
2022/06/05 10:44:28;;;;;;;9.73;9.00;;;21.80;99.90;;;;;;4956942;29;20454;-74
2022/06/05 10:47:09;;;;;;;10.37;9.37;;;21.80;99.90;;;;;;4956857;28;20438;-77
2022/06/05 10:49:54;;;;;;;9.40;8.60;;;21.60;99.90;;;;;;4956784;28;20461;-75
2022/06/05 10:53:01;;;;;;;10.70;9.80;;;21.50;99.90;;;;;;4956744;29;20426;-75
2022/06/05 10:55:58;;;;;;;10.60;9.80;;;21.30;99.90;;;;;;4949315;29;20474;-75
2022/06/05 10:58:42;;;;;;;11.20;10.20;;;21.10;99.90;;;;;;4926706;28;20446;-76
2022/06/05 11:01:26;;;;;;;11.23;10.23;;;21.10;99.90;;;;;;4955683;29;20517;-77
2022/06/05 11:04:28;;;;;;;10.73;9.83;;;21.00;99.90;;;;;;4955656;29;20927;-79
2022/06/05 11:07:23;;;;;;;11.03;10.10;;;20.90;99.90;;;;;;4955797;28;20537;-78
2022/06/05 11:10:02;;;;;;;12.80;11.00;;;21.00;99.90;;;;;;4955577;29;20422;-77
2022/06/05 11:15:39;;;;;;;12.17;10.80;;;20.80;99.90;;;;;;4955617;29;20437;-81
2022/06/05 11:18:20;;;;;;;11.77;10.97;;;20.70;99.90;;;;;;4955252;28;20418;-82
2022/06/05 11:20:58;;;;;;;11.27;10.30;;;20.70;99.90;;;;;;4955462;29;20514;-78
2022/06/05 11:23:33;;;;;;;11.67;10.63;;;20.60;99.90;;;;;;4955497;29;20422;-76
2022/06/05 11:26:04;;;;;;;13.33;12.23;;;20.60;99.90;;;;;;4955549;29;20421;-79
2022/06/05 11:28:55;;;;;;;12.07;11.07;;;20.50;99.90;;;;;;4955507;28;20864;-78
2022/06/05 11:31:47;;;;;;;11.20;10.30;;;20.50;99.90;;;;;;4955144;29;20458;-78
2022/06/05 11:34:24;;;;;;;13.00;11.77;;;20.60;99.90;;;;;;4955121;28;20434;-75
2022/06/05 11:36:52;;;;;;;11.63;10.73;;;20.50;99.90;;;;;;4955083;29;20437;-78
2022/06/05 11:39:47;;;;;;;12.67;11.43;;;20.60;99.90;;;;;;4955036;29;20762;-76
2022/06/05 11:42:27;;;;;;;12.20;11.13;;;20.60;99.90;;;;;;4955037;29;20644;-77
2022/06/05 11:45:22;;;;;;;12.40;11.20;;;20.50;99.90;;;;;;4954931;29;20430;-77
2022/06/05 11:47:57;;;;;;;12.87;11.87;;;20.40;99.90;;;;;;4955003;29;20485;-78
2022/06/05 11:50:33;;;;;;;13.10;11.67;;;20.50;99.90;;;;;;4954990;29;20436;-76
2022/06/05 11:53:31;;;;;;;12.77;11.67;;;20.50;99.90;;;;;;4954697;29;20430;-77
2022/06/05 11:56:09;;;;;;;14.13;12.63;;;20.50;99.90;;;;;;4954678;29;20505;-76
2022/06/05 11:58:53;;;;;;;14.00;12.83;;;20.40;99.90;;;;;;4954605;29;20454;-76
2022/06/05 12:01:26;;;;;;;12.23;11.13;;;20.40;99.90;;;;;;4954547;29;20551;-76
2022/06/05 12:04:18;;;;;;;12.67;11.47;;;20.40;99.90;;;;;;4954586;28;20418;-75
2022/06/05 12:06:51;;;;;;;12.53;11.23;;;20.50;99.90;;;;;;4954604;29;20435;-71
2022/06/05 12:09:21;;;;;;;13.10;11.97;;;20.40;99.90;;;;;;4954435;29;21030;-71
2022/06/05 12:12:13;;;;;;;10.90;9.90;;;20.50;99.90;;;;;;4954385;29;20459;-73
2022/06/05 12:15:02;;;;;;;12.13;11.00;;;20.50;99.90;;;;;;4954377;28;20466;-73
2022/06/05 12:17:50;;;;;;;11.50;10.40;;;20.50;99.90;;;;;;4954251;28;20456;-72
2022/06/05 12:21:05;;;;;;;11.25;10.20;;;20.50;99.90;;;;;;4954178;29;20430;-70
2022/06/05 12:23:36;;;;;;;11.83;10.80;;;20.50;99.90;;;;;;4913912;29;20535;-72
2022/06/05 12:26:20;;;;;;;11.07;10.17;;;20.50;99.90;;;;;;4914077;29;20495;-72
2022/06/05 12:29:01;;;;;;;11.40;10.43;;;20.50;99.90;;;;;;4938337;28;20442;-72
2022/06/05 12:31:34;;;;;;;12.33;11.20;;;20.40;99.90;;;;;;4954157;29;20557;-74
2022/06/05 12:34:02;;;;;;;11.73;10.80;;;20.40;99.90;;;;;;4954140;28;20464;-73
2022/06/05 12:36:46;;;;;;;11.37;10.37;;;20.50;99.90;;;;;;4954039;29;20426;-73
2022/06/05 12:39:26;;;;;;;12.07;11.07;;;20.50;99.90;;;;;;4954040;28;20525;-73
2022/06/05 12:42:25;;;;;;;11.53;10.57;;;20.40;99.90;;;;;;4953913;28;20568;-73
2022/06/05 12:44:57;;;;;;;10.90;9.97;;;20.40;99.90;;;;;;4954031;29;20984;-72
2022/06/05 12:47:37;;;;;;;13.50;11.70;;;20.40;99.90;;;;;;4954104;28;20778;-72
2022/06/05 12:50:17;;;;;;;11.67;10.60;;;20.50;99.90;;;;;;4954251;29;20472;-70
2022/06/05 12:53:08;;;;;;;12.50;11.30;;;20.60;99.90;;;;;;4953904;29;20452;-71
2022/06/05 12:55:40;;;;;;;12.43;11.40;;;20.60;99.90;;;;;;4954074;29;20520;-72
2022/06/05 12:58:18;;;;;;;13.57;11.47;;;20.50;99.90;;;;;;4953913;29;20764;-72
2022/06/05 13:01:02;;;;;;;12.47;11.33;;;20.60;99.90;;;;;;4952463;29;20796;-72
2022/06/05 13:03:52;;;;;;;13.30;12.00;;;20.50;99.90;;;;;;4953894;28;20430;-69
2022/06/05 13:07:04;;;;;;;12.10;10.93;;;20.50;99.90;;;;;;4953638;29;20438;-70
2022/06/05 13:09:36;;;;;;;11.60;10.63;;;20.60;99.90;;;;;;4913472;29;20424;-70
2022/06/05 13:12:10;;;;;;;13.53;12.33;;;20.60;99.90;;;;;;4913468;29;20427;-70
2022/06/05 13:14:58;;;;;;;13.43;12.33;;;20.50;99.90;;;;;;4938509;29;20756;-70
2022/06/05 13:17:42;;;;;;;13.40;12.10;;;20.60;99.90;;;;;;4953957;29;20430;-71
2022/06/05 13:20:20;;;;;;;12.87;11.67;;;20.60;99.90;;;;;;4953800;28;20422;-71
2022/06/05 13:23:11;;;;;;;14.90;13.50;;;20.60;99.90;;;;;;4953732;29;20474;-71
2022/06/05 13:26:13;;;;;;;15.70;14.33;;;20.70;99.90;;;;;;4935476;29;20422;-71
2022/06/05 13:29:06;;;;;;;15.37;13.50;;;20.70;99.90;;;;;;4953557;29;20949;-71
2022/06/05 13:32:04;;;;;;;14.63;13.23;;;20.70;99.90;;;;;;4953534;29;20862;-69
2022/06/05 13:34:51;;;;;;;15.77;14.37;;;20.80;99.90;;;;;;4953762;29;20422;-69
2022/06/05 13:37:41;;;;;;;14.57;13.37;;;20.70;99.90;;;;;;4953589;29;20493;-69
2022/06/05 13:40:10;;;;;;;15.50;14.10;;;20.80;99.90;;;;;;4953904;28;20779;-70
2022/06/05 13:42:38;;;;;;;16.70;15.20;;;20.90;99.90;;;;;;4957107;29;20560;-71
2022/06/05 13:45:25;;;;;;;15.17;13.80;;;21.00;99.90;;;;;;4957120;28;20784;-70
2022/06/05 13:48:25;;;;;;;16.50;15.00;;;21.00;99.90;;;;;;4957286;28;20430;-70
2022/06/05 13:51:08;;;;;;;16.43;14.83;;;21.00;99.90;;;;;;4957159;28;20504;-69
2022/06/05 13:53:38;;;;;;;15.90;14.43;;;21.10;99.90;;;;;;4957127;29;20434;-71
2022/06/05 13:56:29;;;;;;;18.13;16.43;;;21.10;99.90;;;;;;4957062;29;20906;-68
2022/06/05 13:59:13;;;;;;;17.40;15.67;;;21.10;99.90;;;;;;4956905;28;20773;-69
2022/06/05 14:01:58;;;;;;;15.60;14.30;;;21.10;99.90;;;;;;4956705;29;20487;-71
2022/06/05 14:04:26;;;;;;;16.57;15.00;;;21.30;99.90;;;;;;4956907;29;20422;-70
2022/06/05 14:06:54;;;;;;;15.63;14.23;;;21.20;99.90;;;;;;4956748;29;20430;-72
2022/06/05 14:09:40;;;;;;;16.60;15.10;;;21.20;99.90;;;;;;4956934;29;20693;-72
2022/06/05 14:12:17;;;;;;;15.93;14.33;;;21.20;99.90;;;;;;4956782;29;20488;-72
2022/06/05 14:14:44;;;;;;;17.67;15.80;;;21.20;99.90;;;;;;4955446;29;20820;-72
2022/06/05 14:17:29;;;;;;;17.27;15.80;;;21.20;99.90;;;;;;4956504;29;20926;-71
2022/06/05 14:20:02;;;;;;;16.80;15.30;;;21.20;99.90;;;;;;4956591;29;20434;-71
2022/06/05 14:22:33;;;;;;;17.17;15.60;;;21.20;99.90;;;;;;4956546;29;20514;-71
2022/06/05 14:25:00;;;;;;;16.93;15.43;;;21.10;99.90;;;;;;4956371;28;20809;-70
2022/06/05 14:27:32;;;;;;;17.67;15.73;;;21.20;99.90;;;;;;4956560;29;20458;-72
2022/06/05 14:30:00;;;;;;;17.93;16.33;;;21.10;99.90;;;;;;4956373;29;20796;-71
2022/06/05 14:32:39;;;;;;;18.23;16.50;;;21.10;99.90;;;;;;4956265;29;20466;-71
2022/06/05 14:35:16;;;;;;;17.13;15.50;;;21.10;99.90;;;;;;4956273;28;20442;-73
2022/06/05 14:38:16;;;;;;;20.80;17.67;;;21.10;99.90;;;;;;4956262;28;20937;-71
2022/06/05 14:41:07;;;;;;;18.27;16.47;;;21.00;99.90;;;;;;4956168;28;20457;-72
2022/06/05 14:44:01;;;;;;;19.97;17.93;;;20.90;99.90;;;;;;4956188;28;20434;-73
2022/06/05 14:46:32;;;;;;;21.10;19.13;;;20.80;99.90;;;;;;4956182;29;20493;-70
2022/06/05 14:48:58;;;;;;;24.53;22.10;;;20.70;99.90;;;;;;4955938;29;20871;-70
2022/06/05 14:51:41;;;;;;;22.10;19.63;;;20.60;99.90;;;;;;4956090;28;20764;-71
2022/06/05 14:54:19;;;;;;;22.63;20.60;;;20.50;99.90;;;;;;4955562;28;20550;-70
2022/06/05 14:59:54;;;;;;;23.13;20.70;;;20.50;99.90;;;;;;4956051;29;20436;-72
2022/06/05 15:02:33;;;;;;;24.43;21.87;;;20.40;99.90;;;;;;4955871;29;20474;-75
2022/06/05 15:05:10;;;;;;;22.73;20.57;;;20.50;99.90;;;;;;4955498;29;20493;-72
2022/06/05 15:07:45;;;;;;;23.83;21.73;;;20.40;99.90;;;;;;4955633;29;20437;-72
2022/06/05 15:10:23;;;;;;;23.40;21.33;;;20.50;99.90;;;;;;4955719;29;20917;-73
2022/06/05 15:12:53;;;;;;;25.80;23.20;;;20.60;99.90;;;;;;4955587;29;20437;-72
2022/06/05 15:15:22;;;;;;;23.00;20.80;;;20.50;99.90;;;;;;4955519;29;20418;-72
2022/06/05 15:17:53;;;;;;;23.90;21.70;;;20.60;99.90;;;;;;4955388;28;20426;-72
2022/06/05 15:20:25;;;;;;;24.27;22.00;;;20.60;99.90;;;;;;4955490;29;20423;-73
2022/06/05 15:23:25;;;;;;;23.43;21.00;;;20.60;99.90;;;;;;4955616;29;20426;-68
2022/06/05 15:26:00;;;;;;;22.13;19.90;;;20.70;99.90;;;;;;4955426;29;20426;-68
2022/06/05 15:29:01;;;;;;;23.10;20.83;;;20.80;99.90;;;;;;4955458;29;20433;-68
2022/06/05 15:31:45;;;;;;;23.23;20.93;;;20.80;99.90;;;;;;4946218;29;20549;-68
2022/06/05 15:34:23;;;;;;;20.60;18.77;;;20.80;99.90;;;;;;4935495;29;20439;-67
2022/06/05 15:36:57;;;;;;;23.20;21.00;;;20.90;99.90;;;;;;4935173;29;20435;-67
2022/06/05 15:39:30;;;;;;;20.20;18.40;;;20.90;99.90;;;;;;4936197;29;20517;-67
2022/06/05 15:42:15;;;;;;;21.60;19.73;;;20.90;99.90;;;;;;4935729;29;20486;-67
2022/06/05 15:44:55;;;;;;;20.23;18.20;;;21.10;99.90;;;;;;4935964;29;20425;-67
2022/06/05 15:47:43;;;;;;;20.97;18.27;;;21.20;99.90;;;;;;4936268;29;20422;-67
2022/06/05 15:50:27;;;;;;;18.80;16.87;;;21.30;99.90;;;;;;4954878;29;20900;-67
2022/06/05 15:53:21;;;;;;;17.43;15.77;;;21.40;99.90;;;;;;4954807;29;20530;-68
2022/06/05 15:56:19;;;;;;;17.00;15.50;;;21.60;99.90;;;;;;4954774;29;20516;-68
2022/06/05 15:59:05;;;;;;;16.63;15.30;;;21.60;99.90;;;;;;4932541;29;20434;-68
2022/06/05 16:01:38;;;;;;;15.80;14.40;;;21.60;99.90;;;;;;4954693;29;20476;-68
2022/06/05 16:04:23;;;;;;;16.97;15.37;;;21.60;99.90;;;;;;4950768;29;20438;-68
2022/06/05 16:06:56;;;;;;;15.60;14.17;;;21.50;99.90;;;;;;4954638;29;20425;-67
2022/06/05 16:09:35;;;;;;;14.73;13.40;;;21.50;99.90;;;;;;4954581;29;20414;-67
2022/06/05 16:12:11;;;;;;;14.93;13.73;;;21.50;99.90;;;;;;4954454;29;21032;-69
2022/06/05 16:14:47;;;;;;;15.67;14.23;;;21.50;99.90;;;;;;4954240;28;20418;-73
2022/06/05 16:17:22;;;;;;;14.77;13.40;;;21.60;99.90;;;;;;4954603;29;20933;-74
2022/06/05 16:20:00;;;;;;;11.90;11.00;;;21.70;99.90;;;;;;4954396;29;20413;-74
2022/06/05 16:22:53;;;;;;;12.30;11.20;;;21.60;99.90;;;;;;4954625;28;20485;-80
2022/06/05 16:25:33;;;;;;;11.87;10.70;;;21.60;99.90;;;;;;4954466;28;20469;-78
2022/06/05 16:28:13;;;;;;;12.00;11.00;;;21.60;99.90;;;;;;4954358;29;20437;-75
2022/06/05 16:30:41;;;;;;;12.83;11.73;;;21.50;99.90;;;;;;4954099;29;20957;-77
2022/06/05 16:33:29;;;;;;;13.10;11.97;;;21.50;99.90;;;;;;4954158;29;20421;-76
2022/06/05 16:38:52;;;;;;;14.60;13.07;;;21.40;99.90;;;;;;4954177;29;20433;-77
2022/06/05 16:41:19;;;;;;;12.33;11.10;;;21.30;99.90;;;;;;4954084;29;20470;-78
2022/06/05 16:44:03;;;;;;;13.27;12.03;;;21.40;99.90;;;;;;4954227;28;20438;-80
2022/06/05 16:46:37;;;;;;;13.80;12.60;;;21.40;99.90;;;;;;4954489;28;20443;-85
2022/06/05 16:49:08;;;;;;;16.03;10.67;;;21.20;99.90;;;;;;4954251;29;20437;-85
2022/06/05 16:51:53;;;;;;;5.30;4.80;;;21.10;99.90;;;;;;4954292;28;20572;-83
2022/06/05 16:54:21;;;;;;;3.43;3.23;;;20.90;99.90;;;;;;4954023;28;20440;-79
2022/06/05 16:57:02;;;;;;;6.07;3.03;;;20.80;99.90;;;;;;4953806;28;20437;-74
2022/06/05 16:59:32;;;;;;;2.77;2.57;;;20.70;99.90;;;;;;4954024;28;20426;-74
2022/06/05 17:02:17;;;;;;;2.60;2.40;;;20.40;99.90;;;;;;4953628;28;20481;-74
2022/06/05 17:05:04;;;;;;;2.33;2.07;;;20.20;99.90;;;;;;4953829;28;20945;-77
2022/06/05 17:07:31;;;;;;;3.10;2.80;;;20.00;99.90;;;;;;4953928;29;20446;-76
2022/06/05 17:10:28;;;;;;;5.57;2.57;;;19.90;99.90;;;;;;4953815;28;20426;-77
2022/06/05 17:12:57;;;;;;;5.50;2.10;;;19.80;99.90;;;;;;4930033;28;20496;-75
2022/06/05 17:15:27;;;;;;;3.43;2.20;;;19.70;99.90;;;;;;4954953;28;20433;-83
2022/06/05 17:18:19;;;;;;;3.13;2.80;;;19.60;99.90;;;;;;4957865;28;20492;-80
2022/06/05 17:20:51;;;;;;;2.53;2.33;;;19.70;99.90;;;;;;4957652;28;20522;-82
2022/06/05 17:23:18;;;;;;;3.03;2.80;;;19.80;99.90;;;;;;4957608;28;20458;-78
2022/06/05 17:25:43;;;;;;;3.60;2.10;;;19.80;99.90;;;;;;4957616;28;20425;-74
2022/06/05 17:28:28;;;;;;;2.83;2.63;;;19.90;99.90;;;;;;4957354;29;20434;-72
2022/06/05 17:31:14;;;;;;;6.27;2.60;;;19.90;99.90;;;;;;4957384;28;20654;-74
2022/06/05 17:33:55;;;;;;;3.33;2.50;;;19.90;99.90;;;;;;4957445;28;20434;-73
2022/06/05 17:36:29;;;;;;;2.53;2.33;;;19.80;99.90;;;;;;4957524;29;20421;-73
2022/06/05 17:39:01;;;;;;;3.27;2.50;;;19.80;99.90;;;;;;4957368;29;20449;-73
2022/06/05 17:41:27;;;;;;;5.60;2.57;;;19.90;99.90;;;;;;4956870;28;20557;-76
2022/06/05 17:44:28;;;;;;;3.70;2.63;;;19.90;99.90;;;;;;4957276;28;20457;-74
2022/06/05 17:47:18;;;;;;;3.23;2.93;;;19.90;99.90;;;;;;4957272;28;20512;-76
2022/06/05 17:50:01;;;;;;;2.03;1.93;;;19.90;99.90;;;;;;4955859;29;20943;-74
2022/06/05 17:52:28;;;;;;;2.80;2.60;;;19.90;99.90;;;;;;4956613;28;20437;-76
2022/06/05 17:55:09;;;;;;;5.07;2.97;;;19.90;99.90;;;;;;4942263;28;20434;-74
2022/06/05 17:57:37;;;;;;;3.50;2.67;;;19.90;99.90;;;;;;4936551;29;20441;-73
2022/06/05 18:00:08;;;;;;;2.70;2.50;;;19.90;99.90;;;;;;4937947;29;20979;-76
2022/06/05 18:02:46;;;;;;;2.50;2.30;;;20.00;99.90;;;;;;4937830;29;20505;-77
2022/06/05 18:05:32;;;;;;;2.97;2.77;;;19.90;99.90;;;;;;4937799;29;20423;-75
2022/06/05 18:08:07;;;;;;;3.47;3.27;;;19.90;99.90;;;;;;4937533;29;20915;-73
2022/06/05 18:10:36;;;;;;;3.00;2.77;;;19.90;99.90;;;;;;4937853;29;20887;-73
2022/06/05 18:13:02;;;;;;;2.83;2.63;;;19.80;99.90;;;;;;4937663;29;20486;-71